createdAt,value
2019-04-05T00:00:09.645Z,98582.22
2019-04-05T00:02:39.411Z,98577.19
2019-04-05T00:05:09.372Z,98587.48
2019-04-05T00:07:38.872Z,98585.45
2019-04-05T00:10:09.582Z,98589.15
2019-04-05T00:12:39.281Z,98597.38
2019-04-05T00:15:15.450Z,98605.24
2019-04-05T00:17:40.204Z,98601.33
2019-04-05T00:20:09.993Z,98599.37
2019-04-05T00:22:39.446Z,98594.98
2019-04-05T00:25:09.059Z,98600.42
2019-04-05T00:27:38.523Z,98606.80
2019-04-05T00:30:08.389Z,98608.02
2019-04-05T00:32:37.927Z,98614.97
2019-04-05T00:35:08.011Z,98609.78
2019-04-05T00:37:37.481Z,98620.61
2019-04-05T00:40:09.165Z,98624.33
2019-04-05T00:42:39.006Z,98626.73
2019-04-05T00:45:08.624Z,98629.32
2019-04-05T00:47:38.102Z,98636.07
2019-04-05T00:50:07.937Z,98636.92
2019-04-05T00:52:37.401Z,98644.14
2019-04-05T00:55:07.215Z,98648.49
2019-04-05T00:57:37.209Z,98653.70
2019-04-05T01:00:07.332Z,98655.09
2019-04-05T01:02:36.805Z,98657.29
2019-04-05T01:05:07.787Z,98674.89
2019-04-05T01:07:37.574Z,98672.70
2019-04-05T01:10:07.495Z,98674.53
2019-04-05T01:12:37.718Z,98667.95
2019-04-05T01:15:09.888Z,98676.06
2019-04-05T01:17:39.785Z,98680.80
2019-04-05T01:20:10.139Z,98681.30
2019-04-05T01:22:41.951Z,98681.52
2019-04-05T01:25:12.456Z,98686.89
2019-04-05T01:27:42.565Z,98701.66
2019-04-05T01:30:14.612Z,98706.67
2019-04-05T01:32:44.463Z,98704.77
2019-04-05T01:35:14.398Z,98700.55
2019-04-05T01:37:45.222Z,98706.22
2019-04-05T01:40:15.411Z,98709.91
2019-04-05T01:42:45.111Z,98711.25
2019-04-05T01:45:14.811Z,98711.58
2019-04-05T01:47:44.834Z,98711.86
2019-04-05T01:50:14.622Z,98720.43
2019-04-05T01:52:44.237Z,98714.27
2019-04-05T01:55:13.941Z,98718.63
2019-04-05T01:57:43.866Z,98719.92
2019-04-05T02:00:14.109Z,98716.94
2019-04-05T02:02:43.832Z,98724.33
2019-04-05T02:05:13.446Z,98729.52
2019-04-05T02:07:43.335Z,98718.91
2019-04-05T02:10:13.662Z,98720.43
2019-04-05T02:12:43.476Z,98722.32
2019-04-05T02:15:21.796Z,98719.16
2019-04-05T02:17:51.603Z,98721.02
2019-04-05T02:20:21.439Z,98710.63
2019-04-05T02:22:50.895Z,98716.88
2019-04-05T02:25:20.439Z,98728.80
2019-04-05T02:27:49.889Z,98731.32
2019-04-05T02:30:19.654Z,98726.30
2019-04-05T02:32:49.190Z,98731.16
2019-04-05T02:35:19.555Z,98740.20
2019-04-05T02:37:49.087Z,98739.20
2019-04-05T02:40:18.953Z,98744.22
2019-04-05T02:42:49.529Z,98744.73
2019-04-05T02:45:21.004Z,98744.91
2019-04-05T02:47:53.660Z,98746.78
2019-04-05T02:50:25.234Z,98748.79
2019-04-05T02:52:57.320Z,98741.92
2019-04-05T02:55:27.999Z,98750.30
2019-04-05T02:57:58.800Z,98752.82
2019-04-05T03:00:29.229Z,98755.17
2019-04-05T03:02:59.497Z,98754.62
2019-04-05T03:05:28.978Z,98761.30
2019-04-05T03:07:58.772Z,98762.90
2019-04-05T03:10:46.457Z,98761.48
2019-04-05T03:13:15.930Z,98764.31
2019-04-05T03:15:45.881Z,98763.12
2019-04-05T03:18:15.898Z,98756.34
2019-04-05T03:20:45.560Z,98766.05
2019-04-05T03:23:15.081Z,98765.72
2019-04-05T03:25:48.173Z,98766.69
2019-04-05T03:28:16.570Z,98767.37
2019-04-05T03:30:46.255Z,98779.60
2019-04-05T03:33:15.952Z,98788.00
2019-04-05T03:35:45.830Z,98773.23
2019-04-05T03:38:15.380Z,98775.37
2019-04-05T03:40:44.840Z,98775.02
2019-04-05T03:43:14.308Z,98777.55
2019-04-05T03:45:43.941Z,98783.73
2019-04-05T03:48:13.438Z,98783.73
2019-04-05T03:50:45.136Z,98787.41
2019-04-05T03:53:14.414Z,98785.04
2019-04-05T03:55:44.277Z,98793.09
2019-04-05T03:58:13.730Z,98789.06
2019-04-05T04:00:43.224Z,98794.27
2019-04-05T04:03:12.771Z,98800.30
2019-04-05T04:05:42.226Z,98800.14
2019-04-05T04:08:11.962Z,98805.69
2019-04-05T04:10:41.436Z,98809.53
2019-04-05T04:13:10.974Z,98821.78
2019-04-05T04:15:40.487Z,98827.32
2019-04-05T04:18:10.342Z,98831.00
2019-04-05T04:20:50.889Z,98829.84
2019-04-05T04:23:23.910Z,98831.02
2019-04-05T04:25:54.367Z,98832.52
2019-04-05T04:28:23.828Z,98838.56
2019-04-05T04:30:53.756Z,98840.11
2019-04-05T04:33:23.490Z,98845.32
2019-04-05T04:35:53.604Z,98846.15
2019-04-05T04:38:23.133Z,98852.16
2019-04-05T04:40:52.620Z,98845.81
2019-04-05T04:43:22.068Z,98846.48
2019-04-05T04:45:51.909Z,98855.22
2019-04-05T04:48:21.548Z,98865.83
2019-04-05T04:50:51.249Z,98861.16
2019-04-05T04:53:20.754Z,98863.67
2019-04-05T04:55:50.493Z,98865.69
2019-04-05T04:58:19.963Z,98874.06
2019-04-05T05:00:49.737Z,98877.09
2019-04-05T05:03:19.181Z,98883.80
2019-04-05T05:05:48.916Z,98891.52
2019-04-05T05:08:18.384Z,98884.30
2019-04-05T05:10:48.459Z,98879.72
2019-04-05T05:13:17.983Z,98887.81
2019-04-05T05:15:47.548Z,98888.75
2019-04-05T05:18:17.175Z,98887.41
2019-04-05T05:20:46.673Z,98892.25
2019-04-05T05:23:16.133Z,98896.55
2019-04-05T05:25:47.020Z,98901.39
2019-04-05T05:28:16.745Z,98899.02
2019-04-05T05:30:46.377Z,98902.14
2019-04-05T05:33:15.854Z,98902.83
2019-04-05T05:35:45.401Z,98910.55
2019-04-05T05:38:15.067Z,98916.15
2019-04-05T05:40:44.525Z,98914.08
2019-04-05T05:43:13.994Z,98918.27
2019-04-05T05:45:43.473Z,98918.69
2019-04-05T05:48:13.320Z,98924.86
2019-04-05T05:50:42.974Z,98927.95
2019-04-05T05:53:12.615Z,98931.98
2019-04-05T05:55:42.378Z,98930.27
2019-04-05T05:58:11.843Z,98931.38
2019-04-05T06:00:41.304Z,98931.38
2019-04-05T06:03:16.509Z,98927.22
2019-04-05T06:05:44.898Z,98930.50
2019-04-05T06:08:14.364Z,98925.02
2019-04-05T06:10:43.817Z,98933.78
2019-04-05T06:13:13.301Z,98924.30
2019-04-05T06:15:42.774Z,98929.88
2019-04-05T06:18:12.834Z,98932.41
2019-04-05T06:20:42.759Z,98929.65
2019-04-05T06:23:12.233Z,98938.71
2019-04-05T06:25:41.714Z,98938.91
2019-04-05T06:28:11.198Z,98934.48
2019-04-05T06:30:40.725Z,98934.48
2019-04-05T06:33:10.558Z,98940.47
2019-04-05T06:35:40.372Z,98940.47
2019-04-05T06:38:09.859Z,98939.27
2019-04-05T06:40:41.286Z,98946.52
2019-04-05T06:43:10.911Z,98944.32
2019-04-05T06:45:40.974Z,98948.95
2019-04-05T06:48:19.193Z,98944.81
2019-04-05T06:50:41.709Z,98937.97
2019-04-05T06:53:11.183Z,98945.22
2019-04-05T06:55:40.924Z,98943.55
2019-04-05T06:58:10.702Z,98948.77
2019-04-05T07:00:56.094Z,98951.02
2019-04-05T07:03:13.738Z,98961.78
2019-04-05T07:05:43.278Z,98959.34
2019-04-05T07:08:12.777Z,98963.44
2019-04-05T07:10:45.073Z,98964.42
2019-04-05T07:13:13.418Z,98965.53
2019-04-05T07:15:42.885Z,98963.27
2019-04-05T07:18:12.367Z,98965.61
2019-04-05T07:20:41.819Z,98976.27
2019-04-05T07:23:11.310Z,98991.05
2019-04-05T07:25:40.778Z,98990.94
2019-04-05T07:28:10.265Z,98992.09
2019-04-05T07:30:39.725Z,98998.83
2019-04-05T07:33:09.219Z,99005.44
2019-04-05T07:35:38.679Z,99005.44
2019-04-05T07:38:09.730Z,99006.80
2019-04-05T07:40:39.384Z,99008.09
2019-04-05T07:43:08.865Z,99014.26
2019-04-05T07:45:38.322Z,99009.89
2019-04-05T07:48:07.797Z,99010.81
2019-04-05T07:50:37.258Z,99005.48
2019-04-05T07:53:07.041Z,99007.84
2019-04-05T07:55:36.502Z,98999.27
2019-04-05T07:58:06.255Z,98997.02
2019-04-05T08:00:48.416Z,98997.36
2019-04-05T08:03:18.331Z,98992.08
2019-04-05T08:05:48.649Z,98983.35
2019-04-05T08:08:42.399Z,98980.23
2019-04-05T08:11:12.260Z,98977.66
2019-04-05T08:13:42.715Z,98985.97
2019-04-05T08:16:12.178Z,98983.58
2019-04-05T08:18:41.838Z,98978.88
2019-04-05T08:21:11.280Z,98977.42
2019-04-05T08:23:41.057Z,98979.21
2019-04-05T08:26:10.781Z,98978.45
2019-04-05T08:28:40.265Z,98976.70
2019-04-05T08:31:11.046Z,98981.81
2019-04-05T08:33:40.940Z,98985.91
2019-04-05T08:36:10.400Z,98973.92
2019-04-05T08:38:40.117Z,98979.33
2019-04-05T08:41:09.627Z,98966.09
2019-04-05T08:43:39.160Z,98970.84
2019-04-05T08:46:08.640Z,98977.64
2019-04-05T08:48:38.120Z,98972.67
2019-04-05T08:51:07.658Z,98970.59
2019-04-05T08:53:37.132Z,98958.61
2019-04-05T08:56:06.589Z,98961.84
2019-04-05T08:58:36.065Z,98957.30
2019-04-05T09:01:05.602Z,98954.01
2019-04-05T09:03:35.069Z,98953.37
2019-04-05T09:06:04.589Z,98948.92
2019-04-05T09:08:34.094Z,98953.06
2019-04-05T09:11:03.536Z,98950.52
2019-04-05T09:13:35.497Z,98944.03
2019-04-05T09:16:05.284Z,98937.11
2019-04-05T09:18:34.850Z,98932.23
2019-04-05T09:21:04.305Z,98925.80
2019-04-05T09:23:34.108Z,98928.19
2019-04-05T09:26:03.742Z,98938.25
2019-04-05T09:28:33.584Z,98929.48
2019-04-05T09:31:03.050Z,98926.95
2019-04-05T09:33:32.521Z,98923.09
2019-04-05T09:36:01.984Z,98927.20
2019-04-05T09:38:31.453Z,98921.56
2019-04-05T09:41:00.906Z,98921.37
2019-04-05T09:43:30.371Z,98919.86
2019-04-05T09:45:59.829Z,98915.48
2019-04-05T09:48:29.285Z,98907.53
2019-04-05T09:50:58.927Z,98912.05
2019-04-05T09:53:28.403Z,98912.36
2019-04-05T09:55:58.057Z,98907.61
2019-04-05T09:58:27.557Z,98914.53
2019-04-05T10:00:57.018Z,98912.19
2019-04-05T10:03:26.822Z,98902.17
2019-04-05T10:05:56.308Z,98910.51
2019-04-05T10:08:25.773Z,98907.48
2019-04-05T10:11:07.657Z,98915.20
2019-04-05T10:13:37.151Z,98901.13
2019-04-05T10:16:06.612Z,98908.25
2019-04-05T10:18:36.078Z,98920.70
2019-04-05T10:21:05.780Z,98913.11
2019-04-05T10:23:35.247Z,98918.67
2019-04-05T10:26:04.814Z,98921.16
2019-04-05T10:28:34.294Z,98916.20
2019-04-05T10:31:03.813Z,98918.31
2019-04-05T10:33:33.353Z,98913.73
2019-04-05T10:36:02.806Z,98918.09
2019-04-05T10:38:32.264Z,98916.88
2019-04-05T10:41:01.712Z,98908.84
2019-04-05T10:43:31.441Z,98914.07
2019-04-05T10:46:00.883Z,98909.02
2019-04-05T10:48:30.350Z,98907.20
2019-04-05T10:50:59.802Z,98918.16
2019-04-05T10:53:29.395Z,98908.55
2019-04-05T10:55:58.856Z,98906.36
2019-04-05T10:58:28.316Z,98915.39
2019-04-05T11:00:57.938Z,98908.16
2019-04-05T11:03:27.394Z,98905.82
2019-04-05T11:05:57.256Z,98900.46
2019-04-05T11:08:26.723Z,98901.08
2019-04-05T11:10:56.185Z,98907.05
2019-04-05T11:13:25.655Z,98900.32
2019-04-05T11:15:55.119Z,98895.63
2019-04-05T11:18:24.581Z,98890.28
2019-04-05T11:20:54.025Z,98892.84
2019-04-05T11:23:23.583Z,98895.13
2019-04-05T11:25:53.040Z,98897.22
2019-04-05T11:28:22.529Z,98898.66
2019-04-05T11:30:52.337Z,98902.80
2019-04-05T11:33:21.802Z,98898.38
2019-04-05T11:35:51.545Z,98897.23
2019-04-05T11:38:24.101Z,98889.68
2019-04-05T11:40:52.759Z,98889.27
2019-04-05T11:43:26.222Z,98898.92
2019-04-05T11:45:55.563Z,98893.21
2019-04-05T11:48:25.162Z,98901.91
2019-04-05T11:50:54.657Z,98889.77
2019-04-05T11:53:24.099Z,98889.69
2019-04-05T11:55:53.566Z,98884.83
2019-04-05T11:58:23.170Z,98889.11
2019-04-05T12:01:00.053Z,98882.49
2019-04-05T12:03:33.547Z,98879.95
2019-04-05T12:06:03.021Z,98876.97
2019-04-05T12:08:32.484Z,98881.44
2019-04-05T12:11:02.026Z,98883.78
2019-04-05T12:13:31.493Z,98888.15
2019-04-05T12:16:00.941Z,98880.20
2019-04-05T12:18:30.399Z,98887.55
2019-04-05T12:21:00.755Z,98876.88
2019-04-05T12:23:33.378Z,98881.02
2019-04-05T12:26:04.742Z,98879.22
2019-04-05T12:28:33.323Z,98882.40
2019-04-05T12:31:03.397Z,98885.64
2019-04-05T12:33:32.830Z,98872.14
2019-04-05T12:36:02.299Z,98876.42
2019-04-05T12:38:33.128Z,98870.03
2019-04-05T12:41:04.505Z,98867.55
2019-04-05T12:43:33.972Z,98868.05
2019-04-05T12:46:04.211Z,98873.22
2019-04-05T12:48:33.759Z,98864.33
2019-04-05T12:51:05.475Z,98859.49
2019-04-05T12:53:34.375Z,98862.03
2019-04-05T12:56:04.719Z,98860.94
2019-04-05T12:58:34.167Z,98849.64
2019-04-05T13:01:03.889Z,98853.14
2019-04-05T13:03:33.350Z,98858.95
2019-04-05T13:06:02.903Z,98859.47
2019-04-05T13:08:32.354Z,98865.40
2019-04-05T13:11:02.377Z,98863.58
2019-04-05T13:13:32.198Z,98857.27
2019-04-05T13:16:01.664Z,98851.67
2019-04-05T13:18:31.801Z,98849.56
2019-04-05T13:21:13.995Z,98858.23
2019-04-05T13:23:33.731Z,98839.42
2019-04-05T13:26:03.663Z,98855.80
2019-04-05T13:28:33.107Z,98850.62
2019-04-05T13:31:02.918Z,98850.45
2019-04-05T13:33:32.351Z,98857.97
2019-04-05T13:36:01.814Z,98860.72
2019-04-05T13:38:31.267Z,98856.34
2019-04-05T13:41:01.655Z,98859.23
2019-04-05T13:43:33.140Z,98856.55
2019-04-05T13:46:02.609Z,98862.05
2019-04-05T13:48:32.348Z,98854.42
2019-04-05T13:51:01.834Z,98855.69
2019-04-05T13:53:31.378Z,98848.75
2019-04-05T13:56:01.163Z,98847.92
2019-04-05T13:58:30.618Z,98841.91
2019-04-05T14:01:00.363Z,98842.16
2019-04-05T14:03:30.342Z,98838.20
2019-04-05T14:05:59.849Z,98835.44
2019-04-05T14:08:29.353Z,98839.14
2019-04-05T14:11:00.397Z,98839.19
2019-04-05T14:13:29.846Z,98834.84
2019-04-05T14:15:59.352Z,98829.70
2019-04-05T14:18:28.808Z,98828.66
2019-04-05T14:20:58.335Z,98823.64
2019-04-05T14:23:28.087Z,98833.91
2019-04-05T14:25:59.976Z,98821.52
2019-04-05T14:28:29.472Z,98832.01
2019-04-05T14:31:02.257Z,98820.78
2019-04-05T14:33:30.611Z,98823.77
2019-04-05T14:36:00.077Z,98824.31
2019-04-05T14:38:31.324Z,98823.17
2019-04-05T14:41:01.021Z,98828.25
2019-04-05T14:43:30.501Z,98831.28
2019-04-05T14:46:02.667Z,98832.28
2019-04-05T14:48:31.991Z,98833.13
2019-04-05T14:51:01.657Z,98828.08
2019-04-05T14:53:32.371Z,98822.31
2019-04-05T14:56:02.577Z,98820.81
2019-04-05T14:58:32.056Z,98820.69
2019-04-05T15:01:01.524Z,98823.47
2019-04-05T15:03:30.992Z,98833.87
2019-04-05T15:06:00.470Z,98834.22
2019-04-05T15:08:30.250Z,98835.99
2019-04-05T15:10:59.744Z,98838.78
2019-04-05T15:13:29.308Z,98833.86
2019-04-05T15:15:58.830Z,98835.41
2019-04-05T15:18:28.284Z,98826.70
2019-04-05T15:20:57.867Z,98824.83
2019-04-05T15:23:27.427Z,98817.61
2019-04-05T15:25:56.952Z,98818.00
2019-04-05T15:28:26.427Z,98815.75
2019-04-05T15:30:56.598Z,98817.25
2019-04-05T15:33:27.861Z,98808.78
2019-04-05T15:36:02.144Z,98812.73
2019-04-05T15:38:31.848Z,98812.79
2019-04-05T15:41:00.605Z,98816.14
2019-04-05T15:43:30.066Z,98813.94
2019-04-05T15:45:59.810Z,98813.11
2019-04-05T15:48:29.727Z,98810.63
2019-04-05T15:50:59.473Z,98813.80
2019-04-05T15:53:31.875Z,98812.44
2019-04-05T15:56:04.026Z,98814.31
2019-04-05T15:58:34.056Z,98814.42
2019-04-05T16:01:04.470Z,98809.77
2019-04-05T16:03:36.871Z,98817.34
2019-04-05T16:06:05.872Z,98819.23
2019-04-05T16:08:35.603Z,98816.70
2019-04-05T16:11:05.527Z,98824.06
2019-04-05T16:13:35.230Z,98819.75
2019-04-05T16:16:04.705Z,98825.58
2019-04-05T16:18:34.160Z,98825.26
2019-04-05T16:21:03.622Z,98829.20
2019-04-05T16:23:33.087Z,98827.42
2019-04-05T16:26:02.634Z,98832.92
2019-04-05T16:28:32.193Z,98834.78
2019-04-05T16:31:01.948Z,98835.13
2019-04-05T16:33:31.397Z,98842.17
2019-04-05T16:36:05.454Z,98843.08
2019-04-05T16:38:29.700Z,98849.06
2019-04-05T16:40:59.179Z,98844.86
2019-04-05T16:43:28.644Z,98845.88
2019-04-05T16:45:58.123Z,98844.16
2019-04-05T16:48:27.613Z,98847.97
2019-04-05T16:51:00.029Z,98842.57
2019-04-05T16:53:30.647Z,98854.71
2019-04-05T16:56:00.420Z,98855.19
2019-04-05T16:58:36.208Z,98851.86
2019-04-05T17:01:05.867Z,98855.06
2019-04-05T17:03:35.417Z,98854.25
2019-04-05T17:06:04.874Z,98853.10
2019-04-05T17:08:34.336Z,98856.25
2019-04-05T17:11:03.814Z,98855.55
2019-04-05T17:13:33.286Z,98857.51
2019-04-05T17:16:02.743Z,98851.09
2019-04-05T17:18:32.206Z,98860.98
2019-04-05T17:21:01.688Z,98862.22
2019-04-05T17:23:33.155Z,98855.87
2019-04-05T17:26:02.289Z,98858.09
2019-04-05T17:28:31.758Z,98855.53
2019-04-05T17:31:01.536Z,98857.62
2019-04-05T17:33:31.027Z,98864.50
2019-04-05T17:36:07.394Z,98861.69
2019-04-05T17:38:36.851Z,98865.39
2019-04-05T17:41:06.467Z,98866.42
2019-04-05T17:43:38.653Z,98860.41
2019-04-05T17:46:08.404Z,98864.18
2019-04-05T17:48:37.868Z,98859.27
2019-04-05T17:51:07.430Z,98871.30
2019-04-05T17:53:36.884Z,98876.83
2019-04-05T17:56:06.359Z,98872.55
2019-04-05T17:58:37.208Z,98875.09
2019-04-05T18:01:06.765Z,98874.49
2019-04-05T18:03:36.232Z,98881.78
2019-04-05T18:06:05.748Z,98880.17
2019-04-05T18:08:35.206Z,98893.02
2019-04-05T18:11:06.117Z,98889.51
2019-04-05T18:13:53.128Z,98896.34
2019-04-05T18:16:40.866Z,98898.73
2019-04-05T18:19:09.804Z,98905.48
2019-04-05T18:21:38.750Z,98903.05
2019-04-05T18:24:07.936Z,98910.05
2019-04-05T18:26:36.884Z,98907.55
2019-04-05T18:29:06.467Z,98906.72
2019-04-05T18:31:35.888Z,98903.20
2019-04-05T18:34:05.611Z,98909.03
2019-04-05T18:36:35.074Z,98909.70
2019-04-05T18:39:07.330Z,98910.52
2019-04-05T18:41:36.797Z,98915.12
2019-04-05T18:44:06.261Z,98912.08
2019-04-05T18:46:35.713Z,98918.94
2019-04-05T18:49:05.188Z,98918.69
2019-04-05T18:51:34.975Z,98923.22
2019-04-05T18:54:04.585Z,98922.57
2019-04-05T18:56:34.037Z,98926.66
2019-04-05T18:59:03.516Z,98924.16
2019-04-05T19:01:32.998Z,98929.47
2019-04-05T19:04:05.341Z,98931.27
2019-04-05T19:06:33.883Z,98930.20
2019-04-05T19:09:05.017Z,98933.76
2019-04-05T19:11:34.480Z,98935.39
2019-04-05T19:14:03.954Z,98942.38
2019-04-05T19:16:33.415Z,98941.61
2019-04-05T19:19:03.053Z,98939.41
2019-04-05T19:21:32.539Z,98941.02
2019-04-05T19:24:02.041Z,98943.27
2019-04-05T19:26:31.494Z,98941.47
2019-04-05T19:29:01.006Z,98933.92
2019-04-05T19:49:12.211Z,98942.54
2019-04-05T19:51:41.675Z,98945.19
2019-04-05T19:54:11.151Z,98943.52
2019-04-05T19:56:40.600Z,98950.20
2019-04-05T19:59:10.053Z,98952.52
2019-04-05T20:01:39.522Z,98949.17
2019-04-05T20:04:09.006Z,98959.86
2019-04-05T20:06:38.476Z,98953.44
2019-04-05T20:09:08.003Z,98967.89
2019-04-05T20:11:37.473Z,98967.89
2019-04-05T20:14:06.957Z,98976.12
2019-04-05T20:16:36.440Z,98965.80
2019-04-05T20:19:05.918Z,98970.34
2019-04-05T20:21:35.375Z,98965.61
2019-04-05T20:24:13.788Z,98969.97
2019-04-05T20:26:36.938Z,98972.78
2019-04-05T20:29:06.660Z,98968.95
2019-04-05T20:31:36.131Z,98969.38
2019-04-05T20:34:05.894Z,98969.38
2019-04-05T20:36:35.349Z,98981.38
2019-04-05T20:39:07.055Z,98983.24
2019-04-05T20:41:36.538Z,98983.48
2019-04-05T20:44:06.007Z,98983.48
2019-04-05T20:46:35.750Z,98981.80
2019-04-05T20:49:05.465Z,98986.87
2019-04-05T20:51:35.269Z,98986.87
2019-04-05T20:54:04.900Z,98987.46
2019-04-05T20:56:34.357Z,98989.73
2019-04-05T20:59:03.838Z,98986.22
2019-04-05T21:01:33.293Z,98986.22
2019-04-05T21:04:02.753Z,98989.66
2019-04-05T21:06:32.219Z,98989.38
2019-04-05T21:09:04.479Z,98994.72
2019-04-05T21:11:36.145Z,98994.72
2019-04-05T21:14:05.600Z,99001.64
2019-04-05T21:16:35.564Z,98994.58
2019-04-05T21:19:05.183Z,99000.69
2019-04-05T21:21:34.718Z,99001.27
2019-04-05T21:24:04.157Z,99005.81
2019-04-05T21:26:33.612Z,99007.41
2019-04-05T21:29:03.090Z,99010.58
2019-04-05T21:31:32.575Z,99012.83
2019-04-05T21:34:02.048Z,99019.14
2019-04-05T21:36:31.504Z,99026.44
2019-04-05T21:39:00.957Z,99025.92
2019-04-05T21:41:30.411Z,99032.63
2019-04-05T21:43:59.894Z,99031.97
2019-04-05T21:46:29.362Z,99034.86
2019-04-05T21:48:58.867Z,99036.80
2019-04-05T21:51:28.309Z,99040.20
2019-04-05T21:53:57.781Z,99033.66
2019-04-05T21:56:27.246Z,99042.61
2019-04-05T21:58:56.721Z,99044.36
2019-04-05T22:01:26.940Z,99045.39
2019-04-05T22:03:56.990Z,99039.20
2019-04-05T22:06:26.922Z,99043.42
2019-04-05T22:08:56.474Z,99047.48
2019-04-05T22:11:27.721Z,99055.27
2019-04-05T22:13:57.079Z,99050.25
2019-04-05T22:16:26.547Z,99053.79
2019-04-05T22:18:56.037Z,99055.63
2019-04-05T22:21:25.777Z,99067.39
2019-04-05T22:23:55.255Z,99060.48
2019-04-05T22:26:24.696Z,99063.17
2019-04-05T22:28:54.171Z,99067.41
2019-04-05T22:31:23.640Z,99071.45
2019-04-05T22:33:53.159Z,99075.02
2019-04-05T22:36:22.630Z,99077.08
2019-04-05T22:38:52.088Z,99075.24
2019-04-05T22:41:21.560Z,99081.14
2019-04-05T22:43:51.007Z,99079.51
2019-04-05T22:46:20.455Z,99083.70
2019-04-05T22:48:49.898Z,99084.55
2019-04-05T22:51:19.352Z,99077.70
2019-04-05T22:53:48.809Z,99077.70
2019-04-05T22:56:18.258Z,99091.94
2019-04-05T22:58:47.712Z,99102.01
2019-04-05T23:01:17.163Z,99099.49
2019-04-05T23:03:46.778Z,99097.48
2019-04-05T23:06:16.522Z,99100.00
2019-04-05T23:08:45.963Z,99104.22
2019-04-05T23:11:15.462Z,99100.87
2019-04-05T23:13:44.899Z,99097.68
2019-04-05T23:16:14.372Z,99101.03
2019-04-05T23:18:43.811Z,99094.82
2019-04-05T23:21:13.275Z,99093.14
2019-04-05T23:23:42.714Z,99090.12
2019-04-05T23:26:12.195Z,99098.84
2019-04-05T23:28:41.673Z,99095.34
2019-04-05T23:31:11.298Z,99099.03
2019-04-05T23:33:40.845Z,99099.37
2019-04-05T23:36:10.315Z,99101.20
2019-04-05T23:38:39.825Z,99097.68
2019-04-05T23:41:09.234Z,99096.52
2019-04-05T23:43:38.933Z,99087.97
2019-04-05T23:46:08.390Z,99093.17
2019-04-05T23:48:37.831Z,99096.50
2019-04-05T23:51:07.355Z,99100.17
2019-04-05T23:53:36.812Z,99099.50
2019-04-05T23:56:06.290Z,99100.53
2019-04-05T23:58:35.724Z,99098.69
